Map

Track Data

SID SEASON NUMBER BASIN SUBBASIN NAME ISO_TIME NATURE LAT LON WMO_WIND WMO_PRES WMO_AGENCY TRACK_TYPE DIST2LAND LANDFALL IFLAG USA_AGENCY USA_ATCF_ID USA_LAT USA_LON USA_RECORD USA_STATUS USA_WIND USA_PRES USA_SSHS USA_R34_NE USA_R34_SE USA_R34_SW USA_R34_NW USA_R50_NE USA_R50_SE USA_R50_SW USA_R50_NW USA_R64_NE USA_R64_SE USA_R64_SW USA_R64_NW USA_POCI USA_ROCI USA_RMW USA_EYE TOKYO_LAT TOKYO_LON TOKYO_GRADE TOKYO_WIND TOKYO_PRES TOKYO_R50_DIR TOKYO_R50_LONG TOKYO_R50_SHORT TOKYO_R30_DIR TOKYO_R30_LONG TOKYO_R30_SHORT TOKYO_LAND CMA_LAT CMA_LON CMA_CAT CMA_WIND CMA_PRES HKO_LAT HKO_LON HKO_CAT HKO_WIND HKO_PRES NEWDELHI_LAT NEWDELHI_LON NEWDELHI_GRADE NEWDELHI_WIND NEWDELHI_PRES NEWDELHI_CI NEWDELHI_DP NEWDELHI_POCI REUNION_LAT REUNION_LON REUNION_TYPE REUNION_WIND REUNION_PRES REUNION_TNUM REUNION_CI REUNION_RMW REUNION_R34_NE REUNION_R34_SE REUNION_R34_SW REUNION_R34_NW REUNION_R50_NE REUNION_R50_SE REUNION_R50_SW REUNION_R50_NW REUNION_R64_NE REUNION_R64_SE REUNION_R64_SW REUNION_R64_NW BOM_LAT BOM_LON BOM_TYPE BOM_WIND BOM_PRES BOM_TNUM BOM_CI BOM_RMW BOM_R34_NE BOM_R34_SE BOM_R34_SW BOM_R34_NW BOM_R50_NE BOM_R50_SE BOM_R50_SW BOM_R50_NW BOM_R64_NE BOM_R64_SE BOM_R64_SW BOM_R64_NW BOM_ROCI BOM_POCI BOM_EYE BOM_POS_METHOD BOM_PRES_METHOD NADI_LAT NADI_LON NADI_CAT NADI_WIND NADI_PRES WELLINGTON_LAT WELLINGTON_LON WELLINGTON_WIND WELLINGTON_PRES DS824_LAT DS824_LON DS824_STAGE DS824_WIND DS824_PRES TD9636_LAT TD9636_LON TD9636_STAGE TD9636_WIND TD9636_PRES TD9635_LAT TD9635_LON TD9635_WIND TD9635_PRES TD9635_ROCI NEUMANN_LAT NEUMANN_LON NEUMANN_CLASS NEUMANN_WIND NEUMANN_PRES MLC_LAT MLC_LON MLC_CLASS MLC_WIND MLC_PRES USA_GUST BOM_GUST BOM_GUST_PER REUNION_GUST REUNION_GUST_PER USA_SEAHGT USA_SEARAD_NE USA_SEARAD_SE USA_SEARAD_SW USA_SEARAD_NW STORM_SPEED STORM_DIR
1989231N22154 1989 84 WP MM NOT_NAMED 1989-08-19 00:00:00 TS 21.5000 153.500 main 1990 1987 __O___________ -1 21.5000 153.500 0 19 1005 7 62
1989231N22154 1989 84 WP MM NOT_NAMED 1989-08-19 03:00:00 TS 21.6675 153.835 main 1991 1991 __P___________ -1 21.6675 153.835 0 19 1005 7 65
1989231N22154 1989 84 WP MM NOT_NAMED 1989-08-19 06:00:00 TS 21.8000 154.200 main 2008 2008 __O___________ -1 21.8000 154.200 0 19 1005 8 73
1989231N22154 1989 84 WP MM NOT_NAMED 1989-08-19 09:00:00 TS 21.8851 154.608 main 2026 2026 __P___________ -1 21.8851 154.608 0 19 1006 8 75
1989231N22154 1989 84 WP MM NOT_NAMED 1989-08-19 12:00:00 TS 22.0000 155.000 main 2044 2040 __O___________ -1 22.0000 155.000 0 19 1008 7 62
1989231N22154 1989 84 WP MM NOT_NAMED 1989-08-19 15:00:00 TS 22.2198 155.300 main 2047 2036 __P___________ -1 22.2198 155.300 0 19 1008 7 48
1989231N22154 1989 84 WP MM NOT_NAMED 1989-08-19 18:00:00 TS 22.5000 155.600 main 2043 2040 __O___________ -1 22.5000 155.600 0 19 1008 8 47
1989231N22154 1989 84 WP MM NOT_NAMED 1989-08-19 21:00:00 TS 22.7998 155.963 main 2047 2039 __P___________ -1 22.7998 155.963 0 19 1008 10 51
1989231N22154 1989 84 WP MM NOT_NAMED 1989-08-20 00:00:00 TS 23.1000 156.400 main 2050 2049 __O___________ -1 23.1000 156.400 0 19 1008 10 58
1989231N22154 1989 84 WP MM NOT_NAMED 1989-08-20 03:00:00 TS 23.3500 156.928 main 2061 2061 __P___________ -1 23.3500 156.928 0 19 1008 11 64
1989231N22154 1989 84 WP MM NOT_NAMED 1989-08-20 06:00:00 TS 23.6000 157.500 main 2089 2089 __O___________ -1 23.6000 157.500 0 19 1008 12 62
1989231N22154 1989 84 WP MM NOT_NAMED 1989-08-20 09:00:00 TS 23.8998 158.050 main 2110 2103 __P___________ -1 23.8998 158.050 0 19 1008 12 59
1989231N22154 1989 84 WP MM NOT_NAMED 1989-08-20 12:00:00 TS 24.2000 158.600 main 2126 2126 __O___________ -1 24.2000 158.600 0 19 1008 12 62
1989231N22154 1989 84 WP MM NOT_NAMED 1989-08-20 15:00:00 TS 24.4500 159.173 main 2150 2150 __P___________ -1 24.4500 159.173 0 19 1008 11 63
1989231N22154 1989 84 WP MM NOT_NAMED 1989-08-20 18:00:00 TS 24.7000 159.700 main 2175 2175 __O___________ -1 24.7000 159.700 0 19 1008 10 60
1989231N22154 1989 84 WP MM NOT_NAMED 1989-08-20 21:00:00 TS 24.9699 160.153 main 2194 2194 __P___________ -1 24.9699 160.153 0 19 1008 9 50
1989231N22154 1989 84 WP MM NOT_NAMED 1989-08-21 00:00:00 TS 25.3000 160.500 main 2198 2193 __O___________ -1 25.3000 160.500 0 19 1008 10 38
1989231N22154 1989 84 WP MM NOT_NAMED 1989-08-21 03:00:00 TS 25.7273 160.797 main 2196 2173 __P___________ -1 25.7273 160.797 0 19 1008 10 22
1989231N22154 1989 84 WP MM NOT_NAMED 1989-08-21 06:00:00 TS 26.2000 160.900 main 2173 2131 __O___________ -1 26.2000 160.900 0 19 1008 10 356
1989231N22154 1989 84 WP MM NOT_NAMED 1989-08-21 09:00:00 TS 26.6725 160.726 main 2125 2076 __P___________ -1 26.6725 160.726 0 24 1006 10 334
1989231N22154 1989 84 WP MM NOT_NAMED 1989-08-21 12:00:00 TS 27.1000 160.400 main 2076 2041 __O___________ -1 27.1000 160.400 1 29 1005 9 327
1989231N22154 1989 84 WP MM NOT_NAMED 1989-08-21 15:00:00 TS 27.4597 160.145 main 2027 1990 __P___________ -1 27.4597 160.145 1 29 1005 8 318
1989231N22154 1989 84 WP MM NOT_NAMED 1989-08-21 18:00:00 TS 27.7000 159.800 main 1990 1943 __O___________ -1 27.7000 159.800 1 29 1005 8 294
1989231N22154 1989 84 WP MM NOT_NAMED 1989-08-21 21:00:00 TS 27.8027 159.280 main 1943 1893 __P___________ -1 27.8027 159.280 1 29 1005 10 276
1989231N22154 1989 84 WP MM NOT_NAMED 1989-08-22 00:00:00 TS 27.8000 158.700 main 1893 1851 __O___________ -1 27.8000 158.700 1 29 1005 10 270
1989231N22154 1989 84 WP MM NOT_NAMED 1989-08-22 03:00:00 TS 27.7946 158.200 main 1851 1816 __P___________ -1 27.7946 158.200 1 29 1005 9 264
1989231N22154 1989 84 WP MM NOT_NAMED 1989-08-22 06:00:00 TS 27.7000 157.700 main 1816 1788 __O___________ -1 27.7000 157.700 1 29 1005 10 251
1989231N22154 1989 84 WP MM NOT_NAMED 1989-08-22 09:00:00 TS 27.4800 157.142 main 1780 1759 __P___________ -1 27.4800 157.142 1 29 1005 11 243
1989231N22154 1989 84 WP MM NOT_NAMED 1989-08-22 12:00:00 TS 27.2000 156.600 main 1759 1734 __O___________ -1 27.2000 156.600 1 29 1005 10 240
1989231N22154 1989 84 WP MM NOT_NAMED 1989-08-22 15:00:00 TS 26.9648 156.120 main 1734 1723 __P___________ -1 26.9648 156.120 1 29 1005 9 238
1989231N22154 1989 84 WP MM NOT_NAMED 1989-08-22 18:00:00 TS 26.7000 155.700 main 1723 1715 __O___________ -1 26.7000 155.700 1 29 1005 9 228
1989231N22154 1989 84 WP MM NOT_NAMED 1989-08-22 21:00:00 TS 26.3497 155.343 main 1722 1722 __P___________ -1 26.3497 155.343 1 29 1005 9 222
1989231N22154 1989 84 WP MM NOT_NAMED 1989-08-23 00:00:00 TS 26.0000 155.000 main 1722 1708 __O___________ -1 26.0000 155.000 1 29 1005 9 228
1989231N22154 1989 84 WP MM NOT_NAMED 1989-08-23 03:00:00 TS 25.7352 154.578 main 1715 1701 __P___________ -1 25.7352 154.578 1 24 1006 9 235
1989231N22154 1989 84 WP MM NOT_NAMED 1989-08-23 06:00:00 TS 25.5000 154.200 main 1702 1695 __O___________ -1 25.5000 154.200 0 19 1008 7 229
1989231N22154 1989 84 WP MM NOT_NAMED 1989-08-23 09:00:00 TS 25.2549 153.957 main 1704 1704 __P___________ -1 25.2549 153.957 0 19 1009 6 216
1989231N22154 1989 84 WP MM NOT_NAMED 1989-08-23 12:00:00 TS 25.0000 153.800 main 1715 __O___________ -1 25.0000 153.800 0 19 1010 6 210

Digital Typhoon Data and Search

About IBTrACS Database

This database is a web-friendly format of International Best Track Archive for Climate Stewardship (IBTrACS), a global best track data archive curated by NOAA dating back to 1842.

Updated: 2021-10-21